createdAt,value
2022-09-25T00:01:14.343Z,14.07
2022-09-25T00:03:41.586Z,26.67
2022-09-25T00:06:17.787Z,16.10
2022-09-25T00:08:45.571Z,14.20
2022-09-25T00:11:19.045Z,13.57
2022-09-25T00:13:47.363Z,11.90
2022-09-25T00:16:20.903Z,12.10
2022-09-25T00:19:06.553Z,11.77
2022-09-25T00:21:35.185Z,13.27
2022-09-25T00:24:05.402Z,12.93
2022-09-25T00:26:35.806Z,13.50
2022-09-25T00:29:05.914Z,12.23
2022-09-25T00:31:33.493Z,12.60
2022-09-25T00:34:02.867Z,10.67
2022-09-25T00:36:30.376Z,9.53
2022-09-25T00:38:58.296Z,9.50
2022-09-25T00:41:28.293Z,9.60
2022-09-25T00:43:58.226Z,11.47
2022-09-25T00:46:34.385Z,11.57
2022-09-25T00:49:07.512Z,13.37
2022-09-25T00:51:51.690Z,11.10
2022-09-25T00:54:37.139Z,11.67
2022-09-25T00:57:08.377Z,11.60
2022-09-25T00:59:43.418Z,9.80
2022-09-25T01:02:16.343Z,9.90
2022-09-25T01:04:46.354Z,13.17
2022-09-25T01:07:14.940Z,12.53
2022-09-25T01:09:42.405Z,13.90
2022-09-25T01:12:09.640Z,11.97
2022-09-25T01:14:38.708Z,12.70
2022-09-25T01:17:26.117Z,10.87
2022-09-25T01:20:05.434Z,12.90
2022-09-25T01:23:02.165Z,11.07
2022-09-25T01:25:50.003Z,12.70
2022-09-25T01:29:00.143Z,14.00
2022-09-25T01:31:36.687Z,11.60
2022-09-25T01:34:30.133Z,13.80
2022-09-25T01:37:09.911Z,11.87
2022-09-25T01:39:41.510Z,11.40
2022-09-25T01:42:29.735Z,9.57
2022-09-25T01:45:04.122Z,10.27
2022-09-25T01:47:37.739Z,9.43
2022-09-25T01:50:13.677Z,9.67
2022-09-25T01:52:49.271Z,10.23
2022-09-25T01:55:38.620Z,10.07
2022-09-25T01:58:14.850Z,11.67
2022-09-25T02:00:50.235Z,8.40
2022-09-25T02:03:30.999Z,6.80
2022-09-25T02:06:04.974Z,10.00
2022-09-25T02:08:44.049Z,7.93
2022-09-25T02:11:12.452Z,7.40
2022-09-25T02:13:49.574Z,8.80
2022-09-25T02:16:32.150Z,14.57
2022-09-25T02:19:18.199Z,14.83
2022-09-25T02:22:06.821Z,8.50
2022-09-25T02:24:44.002Z,7.50
2022-09-25T02:27:11.359Z,9.37
2022-09-25T02:29:38.718Z,14.80
2022-09-25T02:32:09.203Z,10.77
2022-09-25T02:34:36.747Z,10.40
2022-09-25T02:37:10.700Z,10.93
2022-09-25T02:39:38.290Z,9.10
2022-09-25T02:42:36.824Z,9.87
2022-09-25T02:45:11.312Z,10.73
2022-09-25T02:47:58.747Z,10.60
2022-09-25T02:50:35.976Z,8.37
2022-09-25T02:53:28.296Z,7.70
2022-09-25T02:56:02.354Z,9.73
2022-09-25T02:58:40.812Z,9.47
2022-09-25T03:01:12.569Z,8.30
2022-09-25T03:03:41.915Z,8.67
2022-09-25T03:06:10.390Z,9.13
2022-09-25T03:08:42.308Z,9.77
2022-09-25T03:11:13.376Z,8.13
2022-09-25T03:13:41.521Z,8.60
2022-09-25T03:16:21.145Z,8.00
2022-09-25T03:18:48.524Z,6.97
2022-09-25T03:21:15.696Z,7.63
2022-09-25T03:23:42.925Z,6.40
2022-09-25T03:26:10.223Z,9.00
2022-09-25T03:28:37.531Z,8.43
2022-09-25T03:31:06.085Z,6.70
2022-09-25T03:33:38.912Z,7.07
2022-09-25T03:36:12.931Z,7.33
2022-09-25T03:38:41.195Z,7.93
2022-09-25T03:41:10.676Z,6.50
2022-09-25T03:43:40.029Z,6.67
2022-09-25T03:46:13.521Z,7.90
2022-09-25T03:48:41.661Z,7.73
2022-09-25T03:51:09.597Z,5.83
2022-09-25T03:53:36.984Z,6.47
2022-09-25T03:56:11.338Z,6.50
2022-09-25T03:58:38.598Z,5.10
2022-09-25T04:01:06.779Z,8.30
2022-09-25T04:03:34.875Z,8.40
2022-09-25T04:06:04.797Z,8.43
2022-09-25T04:08:33.140Z,8.40
2022-09-25T04:11:01.060Z,8.93
2022-09-25T04:13:30.386Z,8.67
2022-09-25T04:15:59.034Z,8.17
2022-09-25T04:18:31.424Z,8.10
2022-09-25T04:21:07.560Z,8.17
2022-09-25T04:23:35.752Z,8.50
2022-09-25T04:26:03.345Z,9.07
2022-09-25T04:28:34.092Z,7.97
2022-09-25T04:31:02.496Z,7.13
2022-09-25T04:33:48.161Z,7.17
2022-09-25T04:36:19.130Z,6.63
2022-09-25T04:38:47.939Z,7.57
2022-09-25T04:41:16.657Z,7.00
2022-09-25T04:43:43.806Z,6.57
2022-09-25T04:46:16.675Z,7.47
2022-09-25T04:48:46.340Z,7.30
2022-09-25T04:51:13.645Z,6.50
2022-09-25T04:53:41.445Z,6.20
2022-09-25T04:56:14.661Z,5.97
2022-09-25T04:58:50.740Z,6.27
2022-09-25T05:01:20.207Z,6.63
2022-09-25T05:03:53.693Z,6.57
2022-09-25T05:06:22.652Z,6.27
2022-09-25T05:08:50.558Z,6.50
2022-09-25T05:11:18.115Z,5.60
2022-09-25T05:13:47.319Z,7.50
2022-09-25T05:16:14.531Z,7.50
2022-09-25T05:18:42.395Z,6.27
2022-09-25T05:21:09.874Z,5.93
2022-09-25T05:23:38.268Z,7.13
2022-09-25T05:26:05.708Z,7.00
2022-09-25T05:28:34.330Z,6.30
2022-09-25T05:31:03.566Z,6.53
2022-09-25T05:33:35.169Z,5.97
2022-09-25T05:36:08.769Z,6.67
2022-09-25T05:38:38.704Z,6.93
2022-09-25T05:41:08.612Z,7.67
2022-09-25T05:43:43.320Z,6.50
2022-09-25T05:46:12.209Z,6.80
2022-09-25T05:48:40.113Z,6.77
2022-09-25T05:51:07.337Z,6.80
2022-09-25T05:53:34.647Z,7.10
2022-09-25T05:56:03.664Z,6.70
2022-09-25T05:58:33.404Z,7.80
2022-09-25T06:01:05.768Z,7.73
2022-09-25T06:03:33.223Z,8.10
2022-09-25T06:06:01.664Z,8.30
2022-09-25T06:08:32.958Z,5.70
2022-09-25T06:11:01.289Z,6.83
2022-09-25T06:13:32.117Z,6.37
2022-09-25T06:15:59.451Z,6.77
2022-09-25T06:18:29.899Z,6.80
2022-09-25T06:21:05.558Z,7.50
2022-09-25T06:23:33.386Z,7.47
2022-09-25T06:26:05.104Z,6.43
2022-09-25T06:28:35.895Z,9.17
2022-09-25T06:31:04.630Z,7.73
2022-09-25T06:33:35.521Z,7.27
2022-09-25T06:36:05.580Z,7.13
2022-09-25T06:38:34.302Z,7.90
2022-09-25T06:41:01.992Z,8.17
2022-09-25T06:43:30.435Z,10.63
2022-09-25T06:46:02.368Z,8.63
2022-09-25T06:48:30.532Z,5.67
2022-09-25T06:50:59.689Z,5.93
2022-09-25T06:53:26.882Z,6.40
2022-09-25T06:55:58.036Z,7.50
2022-09-25T06:58:26.963Z,6.60
2022-09-25T07:00:55.553Z,6.53
2022-09-25T07:03:42.374Z,6.10
2022-09-25T07:06:11.900Z,7.17
2022-09-25T07:08:39.508Z,8.00
2022-09-25T07:11:07.196Z,7.07
2022-09-25T07:13:36.267Z,6.60
2022-09-25T07:16:13.197Z,7.23
2022-09-25T07:18:40.466Z,6.87
2022-09-25T07:21:16.677Z,7.37
2022-09-25T07:23:44.317Z,7.47
2022-09-25T07:26:23.404Z,7.03
2022-09-25T07:29:00.142Z,6.10
2022-09-25T07:31:32.910Z,6.27
2022-09-25T07:34:05.765Z,5.40
2022-09-25T07:36:33.829Z,6.37
2022-09-25T07:39:01.057Z,6.03
2022-09-25T07:41:28.525Z,6.17
2022-09-25T07:46:45.786Z,6.77
2022-09-25T07:49:13.515Z,7.87
2022-09-25T07:51:40.775Z,8.57
2022-09-25T07:54:08.350Z,7.40
2022-09-25T07:56:37.960Z,6.40
2022-09-25T07:59:05.371Z,5.57
2022-09-25T08:01:32.739Z,5.97
2022-09-25T08:03:59.922Z,6.47
2022-09-25T08:06:27.118Z,5.53
2022-09-25T08:08:54.277Z,6.50
2022-09-25T08:11:23.156Z,6.60
2022-09-25T08:13:50.379Z,7.07
2022-09-25T08:16:21.828Z,8.63
2022-09-25T08:18:50.103Z,9.37
2022-09-25T08:21:19.525Z,20.60
2022-09-25T08:23:52.596Z,21.73
2022-09-25T08:26:21.397Z,9.07
2022-09-25T08:28:49.006Z,11.47
2022-09-25T08:31:16.279Z,18.97
2022-09-25T08:33:48.047Z,13.57
2022-09-25T08:36:16.158Z,26.17
2022-09-25T08:38:43.643Z,14.20
2022-09-25T08:41:24.784Z,11.33
2022-09-25T08:44:28.664Z,12.70
2022-09-25T08:47:42.078Z,12.37
2022-09-25T08:50:24.949Z,11.10
2022-09-25T08:53:03.060Z,10.63
2022-09-25T08:55:58.996Z,11.40
2022-09-25T08:58:30.495Z,43.70
2022-09-25T09:01:09.134Z,13.03
2022-09-25T09:03:50.033Z,12.23
2022-09-25T09:06:18.463Z,11.47
2022-09-25T09:08:53.287Z,11.17
2022-09-25T09:11:29.415Z,12.90
2022-09-25T09:14:11.780Z,14.03
2022-09-25T09:16:52.655Z,14.07
2022-09-25T09:19:19.901Z,13.93
2022-09-25T09:22:09.499Z,13.83
2022-09-25T09:24:58.871Z,13.60
2022-09-25T09:27:37.269Z,13.73
2022-09-25T09:30:16.741Z,15.03
2022-09-25T09:32:59.409Z,13.63
2022-09-25T09:35:39.859Z,14.60
2022-09-25T09:38:58.340Z,15.57
2022-09-25T09:41:56.085Z,16.87
2022-09-25T09:44:50.935Z,15.73
2022-09-25T09:47:39.376Z,15.07
2022-09-25T09:50:30.220Z,16.10
2022-09-25T09:53:05.716Z,14.63
2022-09-25T09:55:46.051Z,15.70
2022-09-25T09:58:25.437Z,16.23
2022-09-25T10:00:52.793Z,14.87
2022-09-25T10:03:28.534Z,17.00
2022-09-25T10:06:00.613Z,15.13
2022-09-25T10:08:28.396Z,14.57
2022-09-25T10:10:56.025Z,14.20
2022-09-25T10:13:26.887Z,14.13
2022-09-25T10:16:05.158Z,14.60
2022-09-25T10:18:42.460Z,14.50
2022-09-25T10:21:15.096Z,14.33
2022-09-25T10:23:51.459Z,15.73
2022-09-25T10:26:44.906Z,14.27
2022-09-25T10:29:28.121Z,15.67
2022-09-25T10:32:02.267Z,13.17
2022-09-25T10:34:31.230Z,13.83
2022-09-25T10:36:58.492Z,13.40
2022-09-25T10:39:49.753Z,13.67
2022-09-25T10:42:40.880Z,12.80
2022-09-25T10:45:40.857Z,13.33
2022-09-25T10:48:51.834Z,13.00
2022-09-25T10:51:21.134Z,13.63
2022-09-25T10:53:53.725Z,14.47
2022-09-25T10:56:27.512Z,19.17
2022-09-25T10:59:01.724Z,12.33
2022-09-25T11:01:39.643Z,10.67
2022-09-25T11:04:18.585Z,12.10
2022-09-25T11:06:57.371Z,11.17
2022-09-25T11:09:32.300Z,15.73
2022-09-25T11:12:15.930Z,12.40
2022-09-25T11:14:58.468Z,11.73
2022-09-25T11:17:38.435Z,11.03
2022-09-25T11:20:21.304Z,11.00
2022-09-25T11:23:04.789Z,8.70
2022-09-25T11:25:42.116Z,8.40
2022-09-25T11:28:44.549Z,7.20
2022-09-25T11:31:14.756Z,5.40
2022-09-25T11:34:12.390Z,5.50
2022-09-25T11:36:50.959Z,8.87
2022-09-25T11:39:48.694Z,8.03
2022-09-25T11:42:36.132Z,9.20
2022-09-25T11:45:26.996Z,10.13
2022-09-25T11:48:28.913Z,8.63
2022-09-25T11:51:27.123Z,8.43
2022-09-25T11:54:33.224Z,8.73
2022-09-25T11:57:10.321Z,7.10
2022-09-25T12:00:06.796Z,8.67
2022-09-25T12:03:01.796Z,8.33
2022-09-25T12:05:35.419Z,7.87
2022-09-25T12:08:26.757Z,5.47
2022-09-25T12:10:57.041Z,6.17
2022-09-25T12:13:56.809Z,7.50
2022-09-25T12:16:48.685Z,8.53
2022-09-25T12:19:24.515Z,8.70
2022-09-25T12:22:13.730Z,8.63
2022-09-25T12:25:04.153Z,8.07
2022-09-25T12:27:49.604Z,8.17
2022-09-25T12:30:18.784Z,8.50
2022-09-25T12:33:09.108Z,8.10
2022-09-25T12:35:39.408Z,6.80
2022-09-25T12:38:21.101Z,7.53
2022-09-25T12:40:50.132Z,7.43
2022-09-25T12:43:24.699Z,8.10
2022-09-25T12:46:01.890Z,6.90
2022-09-25T12:48:39.325Z,7.80
2022-09-25T12:51:23.391Z,8.50
2022-09-25T12:53:59.905Z,8.03
2022-09-25T12:56:33.396Z,9.67
2022-09-25T12:59:19.333Z,10.20
2022-09-25T13:02:34.756Z,10.17
2022-09-25T13:05:23.073Z,9.93
2022-09-25T13:08:14.747Z,10.13
2022-09-25T13:11:12.298Z,10.03
2022-09-25T13:13:51.208Z,9.50
2022-09-25T13:16:18.406Z,10.63
2022-09-25T13:19:08.719Z,9.40
2022-09-25T13:21:38.144Z,9.97
2022-09-25T13:24:08.952Z,10.50
2022-09-25T13:26:52.631Z,10.67
2022-09-25T13:29:36.364Z,9.93
2022-09-25T13:32:07.798Z,10.20
2022-09-25T13:34:39.179Z,10.30
2022-09-25T13:37:10.096Z,9.77
2022-09-25T13:40:08.912Z,10.53
2022-09-25T13:42:39.007Z,11.43
2022-09-25T13:45:26.170Z,13.00
2022-09-25T13:48:10.102Z,12.13
2022-09-25T13:50:39.730Z,11.40
2022-09-25T13:53:20.251Z,11.87
2022-09-25T13:55:50.188Z,11.90
2022-09-25T13:58:39.013Z,12.67
2022-09-25T14:01:32.902Z,12.47
2022-09-25T14:04:00.737Z,12.83
2022-09-25T14:06:39.060Z,13.63
2022-09-25T14:09:11.023Z,13.00
2022-09-25T14:11:40.375Z,13.33
2022-09-25T14:14:30.027Z,13.10
2022-09-25T14:16:58.610Z,13.40
2022-09-25T14:19:39.283Z,15.20
2022-09-25T14:22:07.651Z,14.33
2022-09-25T14:24:42.917Z,15.53
2022-09-25T14:27:36.101Z,13.67
2022-09-25T14:30:13.949Z,12.37
2022-09-25T14:32:59.057Z,13.43
2022-09-25T14:36:03.977Z,12.90
2022-09-25T14:39:08.942Z,14.50
2022-09-25T14:42:17.398Z,14.53
2022-09-25T14:45:00.003Z,12.60
2022-09-25T14:47:36.485Z,12.80
2022-09-25T14:50:05.461Z,11.60
2022-09-25T14:52:35.744Z,12.47
2022-09-25T14:55:04.313Z,13.10
2022-09-25T14:57:35.020Z,12.60
2022-09-25T15:00:06.847Z,12.80
2022-09-25T15:02:46.633Z,13.50
2022-09-25T15:05:18.155Z,12.10
2022-09-25T15:07:46.752Z,11.70
2022-09-25T15:10:40.368Z,12.83
2022-09-25T15:13:10.388Z,12.27
2022-09-25T15:15:39.023Z,12.50
2022-09-25T15:18:12.660Z,12.27
2022-09-25T15:20:47.639Z,10.87
2022-09-25T15:23:21.124Z,13.20
2022-09-25T15:25:56.974Z,12.00
2022-09-25T15:28:26.552Z,12.10
2022-09-25T15:31:04.322Z,12.07
2022-09-25T15:33:36.712Z,12.13
2022-09-25T15:36:20.133Z,13.60
2022-09-25T15:38:55.742Z,14.10
2022-09-25T15:41:26.285Z,15.30
2022-09-25T15:44:24.123Z,13.67
2022-09-25T15:46:55.965Z,17.47
2022-09-25T15:49:43.077Z,18.83
2022-09-25T15:52:36.565Z,14.27
2022-09-25T15:55:11.586Z,15.93
2022-09-25T15:57:38.866Z,17.10
2022-09-25T16:00:34.628Z,15.87
2022-09-25T16:03:28.432Z,17.60
2022-09-25T16:05:56.778Z,18.10
2022-09-25T16:08:33.461Z,18.73
2022-09-25T16:11:22.821Z,17.87
2022-09-25T16:13:53.222Z,18.67
2022-09-25T16:16:26.284Z,18.47
2022-09-25T16:18:55.804Z,18.20
2022-09-25T16:21:38.061Z,20.43
2022-09-25T16:24:09.950Z,20.10
2022-09-25T16:26:40.262Z,21.33
2022-09-25T16:29:18.990Z,20.87
2022-09-25T16:31:46.933Z,20.87
2022-09-25T16:34:27.635Z,20.10
2022-09-25T16:36:58.108Z,27.03
2022-09-25T16:39:28.533Z,21.13
2022-09-25T16:41:56.344Z,21.80
2022-09-25T16:44:32.242Z,22.93
2022-09-25T16:46:59.331Z,23.40
2022-09-25T16:49:26.593Z,21.90
2022-09-25T16:51:55.231Z,21.63
2022-09-25T16:54:28.086Z,20.33
2022-09-25T16:56:59.286Z,24.17
2022-09-25T16:59:28.237Z,22.27
2022-09-25T17:02:01.878Z,24.13
2022-09-25T17:04:31.150Z,24.10
2022-09-25T17:06:58.713Z,24.63
2022-09-25T17:09:28.410Z,21.40
2022-09-25T17:12:15.072Z,22.07
2022-09-25T17:14:42.525Z,23.57
2022-09-25T17:17:10.161Z,24.53
2022-09-25T17:19:37.320Z,26.27
2022-09-25T17:22:04.497Z,26.60
2022-09-25T17:24:31.700Z,26.80
2022-09-25T17:26:58.962Z,26.40
2022-09-25T17:29:27.409Z,26.17
2022-09-25T17:31:54.795Z,26.57
2022-09-25T17:34:28.540Z,44.23
2022-09-25T17:36:56.387Z,34.17
2022-09-25T17:39:24.352Z,29.77
2022-09-25T17:41:52.099Z,22.03
2022-09-25T17:44:24.045Z,21.70
2022-09-25T17:46:52.183Z,21.90
2022-09-25T17:49:19.431Z,21.90
2022-09-25T17:51:47.082Z,21.83
2022-09-25T17:54:14.255Z,21.67
2022-09-25T17:56:45.012Z,20.50
2022-09-25T17:59:12.358Z,20.63
2022-09-25T18:01:40.230Z,23.10
2022-09-25T18:04:33.965Z,21.33
2022-09-25T18:07:01.152Z,21.50
2022-09-25T18:09:28.587Z,19.17
2022-09-25T18:11:55.761Z,22.43
2022-09-25T18:14:22.965Z,21.27
2022-09-25T18:16:50.286Z,20.80
2022-09-25T18:19:38.139Z,20.47
2022-09-25T18:22:18.689Z,19.30
2022-09-25T18:24:46.889Z,19.50
2022-09-25T18:27:16.107Z,19.77
2022-09-25T18:29:44.955Z,19.07
2022-09-25T18:32:13.281Z,17.40
2022-09-25T18:34:41.564Z,16.90
2022-09-25T18:37:09.069Z,15.87
2022-09-25T18:39:36.308Z,15.70
2022-09-25T18:42:03.997Z,16.50
2022-09-25T18:44:38.411Z,16.90
2022-09-25T18:47:08.667Z,16.60
2022-09-25T18:49:37.726Z,15.60
2022-09-25T18:52:05.714Z,15.77
2022-09-25T18:54:33.018Z,16.50
2022-09-25T18:57:00.245Z,16.50
2022-09-25T18:59:27.421Z,16.60
2022-09-25T19:01:55.690Z,15.97
2022-09-25T19:04:23.183Z,16.33
2022-09-25T19:06:50.332Z,15.20
2022-09-25T19:09:17.977Z,15.83
2022-09-25T19:11:45.335Z,15.47
2022-09-25T19:14:12.891Z,14.63
2022-09-25T19:16:40.180Z,14.40
2022-09-25T19:19:07.621Z,14.40
2022-09-25T19:21:35.268Z,14.50
2022-09-25T19:24:02.981Z,12.53
2022-09-25T19:26:30.942Z,12.53
2022-09-25T19:28:58.288Z,14.17
2022-09-25T19:31:26.324Z,12.73
2022-09-25T19:33:55.076Z,13.23
2022-09-25T19:36:25.046Z,12.90
2022-09-25T19:38:53.792Z,12.37
2022-09-25T19:41:29.856Z,11.97
2022-09-25T19:44:00.666Z,12.77
2022-09-25T19:46:29.025Z,11.67
2022-09-25T19:48:56.256Z,11.97
2022-09-25T19:51:24.880Z,13.03
2022-09-25T19:53:52.866Z,12.90
2022-09-25T19:56:20.758Z,12.97
2022-09-25T19:58:50.598Z,13.07
2022-09-25T20:01:19.987Z,12.80
2022-09-25T20:03:47.308Z,13.83
2022-09-25T20:06:15.961Z,13.17
2022-09-25T20:08:43.696Z,13.37
2022-09-25T20:11:22.872Z,11.90
2022-09-25T20:13:52.424Z,12.67
2022-09-25T20:16:24.182Z,13.47
2022-09-25T20:18:55.798Z,11.00
2022-09-25T20:21:23.810Z,10.27
2022-09-25T20:23:52.534Z,10.20
2022-09-25T20:26:20.716Z,8.83
2022-09-25T20:28:52.926Z,11.37
2022-09-25T20:31:21.193Z,10.77
2022-09-25T20:33:48.757Z,7.20
2022-09-25T20:36:16.935Z,8.10
2022-09-25T20:38:47.677Z,8.07
2022-09-25T20:41:14.809Z,7.30
2022-09-25T20:43:44.184Z,6.47
2022-09-25T20:46:13.769Z,6.67
2022-09-25T20:48:47.030Z,6.63
2022-09-25T20:51:16.505Z,7.03
2022-09-25T20:53:48.885Z,7.73
2022-09-25T20:56:16.371Z,7.90
2022-09-25T20:58:48.308Z,8.10
2022-09-25T21:01:20.927Z,7.43
2022-09-25T21:03:49.236Z,7.67
2022-09-25T21:06:19.954Z,6.50
2022-09-25T21:08:50.674Z,6.93
2022-09-25T21:11:17.881Z,6.87
2022-09-25T21:13:51.320Z,6.43
2022-09-25T21:16:20.619Z,6.70
2022-09-25T21:18:56.764Z,5.93
2022-09-25T21:21:25.217Z,5.50
2022-09-25T21:23:55.538Z,6.40
2022-09-25T21:26:25.570Z,6.00
2022-09-25T21:28:54.874Z,6.23
2022-09-25T21:31:24.857Z,5.77
2022-09-25T21:33:56.839Z,5.30
2022-09-25T21:36:25.321Z,5.50
2022-09-25T21:38:52.885Z,5.63
2022-09-25T21:41:22.768Z,5.53
2022-09-25T21:44:00.591Z,5.00
2022-09-25T21:46:28.661Z,5.07
2022-09-25T21:49:01.773Z,5.23
2022-09-25T21:51:34.768Z,5.77
2022-09-25T21:54:02.038Z,5.87
2022-09-25T21:56:31.516Z,4.87
2022-09-25T21:59:05.594Z,5.13
2022-09-25T22:01:36.305Z,4.70
2022-09-25T22:04:05.116Z,4.97
2022-09-25T22:06:38.212Z,4.70
2022-09-25T22:09:08.702Z,4.93
2022-09-25T22:11:37.351Z,4.17
2022-09-25T22:14:05.927Z,4.77
2022-09-25T22:16:38.748Z,3.97
2022-09-25T22:19:13.934Z,4.40
2022-09-25T22:21:43.014Z,4.70
2022-09-25T22:24:10.707Z,4.30
2022-09-25T22:26:40.231Z,4.50
2022-09-25T22:29:07.879Z,4.27
2022-09-25T22:31:36.146Z,4.50
2022-09-25T22:34:08.283Z,4.33
2022-09-25T22:36:36.229Z,4.43
2022-09-25T22:39:05.391Z,4.60
2022-09-25T22:41:33.238Z,4.80
2022-09-25T22:44:01.461Z,4.70
2022-09-25T22:46:29.161Z,4.63
2022-09-25T22:48:56.430Z,4.50
2022-09-25T22:51:25.411Z,4.40
2022-09-25T22:53:53.810Z,4.20
2022-09-25T22:56:24.221Z,4.43
2022-09-25T22:58:54.257Z,4.20
2022-09-25T23:01:26.038Z,4.13
2022-09-25T23:03:55.328Z,3.70
2022-09-25T23:06:23.077Z,3.90
2022-09-25T23:09:13.584Z,3.80
2022-09-25T23:11:42.032Z,4.33
2022-09-25T23:14:16.700Z,3.60
2022-09-25T23:16:44.974Z,3.63
2022-09-25T23:19:12.837Z,3.90
2022-09-25T23:21:41.071Z,3.77
2022-09-25T23:24:11.994Z,3.77
2022-09-25T23:26:39.426Z,3.70
2022-09-25T23:29:06.641Z,3.90
2022-09-25T23:31:33.917Z,3.87
2022-09-25T23:34:01.856Z,3.50
2022-09-25T23:36:30.543Z,3.60
2022-09-25T23:39:01.969Z,3.60
2022-09-25T23:41:38.113Z,3.37
2022-09-25T23:44:07.907Z,3.40
2022-09-25T23:46:41.150Z,3.27
2022-09-25T23:49:09.235Z,3.50
2022-09-25T23:51:42.064Z,3.27
2022-09-25T23:54:11.287Z,3.63
2022-09-25T23:56:39.214Z,3.90
2022-09-25T23:59:06.860Z,3.83
